sensor_id;sensor_type;location;lat;lon;timestamp;P1;durP1;ratioP1;P2;durP2;ratioP2
58472;SDS011;44775;51.564;5.460;2023-02-22T00:00:46;48.72;;;21.77;;
58472;SDS011;44775;51.564;5.460;2023-02-22T00:05:39;52.55;;;24.10;;
58472;SDS011;44775;51.564;5.460;2023-02-22T00:08:11;57.03;;;23.50;;
58472;SDS011;44775;51.564;5.460;2023-02-22T00:10:39;51.33;;;22.33;;
58472;SDS011;44775;51.564;5.460;2023-02-22T00:13:05;47.97;;;19.88;;
58472;SDS011;44775;51.564;5.460;2023-02-22T00:15:32;56.20;;;23.73;;
58472;SDS011;44775;51.564;5.460;2023-02-22T00:17:58;52.92;;;22.98;;
58472;SDS011;44775;51.564;5.460;2023-02-22T00:20:24;56.17;;;23.98;;
58472;SDS011;44775;51.564;5.460;2023-02-22T00:22:49;53.75;;;23.83;;
58472;SDS011;44775;51.564;5.460;2023-02-22T00:25:17;54.83;;;24.58;;
58472;SDS011;44775;51.564;5.460;2023-02-22T00:27:46;54.05;;;24.58;;
58472;SDS011;44775;51.564;5.460;2023-02-22T00:30:17;53.50;;;23.17;;
58472;SDS011;44775;51.564;5.460;2023-02-22T00:32:51;57.40;;;25.05;;
58472;SDS011;44775;51.564;5.460;2023-02-22T00:35:19;57.47;;;24.05;;
58472;SDS011;44775;51.564;5.460;2023-02-22T00:37:48;55.20;;;24.13;;
58472;SDS011;44775;51.564;5.460;2023-02-22T00:40:20;56.33;;;24.23;;
58472;SDS011;44775;51.564;5.460;2023-02-22T00:42:47;56.58;;;23.02;;
58472;SDS011;44775;51.564;5.460;2023-02-22T00:45:14;58.42;;;24.08;;
58472;SDS011;44775;51.564;5.460;2023-02-22T00:47:41;56.03;;;23.58;;
58472;SDS011;44775;51.564;5.460;2023-02-22T00:50:06;52.08;;;22.92;;
58472;SDS011;44775;51.564;5.460;2023-02-22T00:52:34;50.80;;;22.00;;
58472;SDS011;44775;51.564;5.460;2023-02-22T00:55:00;53.63;;;22.70;;
58472;SDS011;44775;51.564;5.460;2023-02-22T00:57:25;54.30;;;22.88;;
58472;SDS011;44775;51.564;5.460;2023-02-22T00:59:50;51.90;;;22.45;;
58472;SDS011;44775;51.564;5.460;2023-02-22T01:02:16;56.03;;;23.73;;
58472;SDS011;44775;51.564;5.460;2023-02-22T01:04:41;55.13;;;23.85;;
58472;SDS011;44775;51.564;5.460;2023-02-22T01:07:07;52.58;;;23.13;;
58472;SDS011;44775;51.564;5.460;2023-02-22T01:09:33;58.67;;;23.33;;
58472;SDS011;44775;51.564;5.460;2023-02-22T01:11:59;58.30;;;25.45;;
58472;SDS011;44775;51.564;5.460;2023-02-22T01:14:25;59.85;;;25.00;;
58472;SDS011;44775;51.564;5.460;2023-02-22T01:16:52;63.40;;;25.80;;
58472;SDS011;44775;51.564;5.460;2023-02-22T01:19:18;64.65;;;26.75;;
58472;SDS011;44775;51.564;5.460;2023-02-22T01:21:43;62.75;;;26.05;;
58472;SDS011;44775;51.564;5.460;2023-02-22T01:24:09;69.10;;;27.02;;
58472;SDS011;44775;51.564;5.460;2023-02-22T01:26:34;62.05;;;24.98;;
58472;SDS011;44775;51.564;5.460;2023-02-22T01:28:59;65.70;;;27.25;;
58472;SDS011;44775;51.564;5.460;2023-02-22T01:31:25;65.10;;;26.20;;
58472;SDS011;44775;51.564;5.460;2023-02-22T01:33:50;67.32;;;26.65;;
58472;SDS011;44775;51.564;5.460;2023-02-22T01:36:16;70.38;;;27.60;;
58472;SDS011;44775;51.564;5.460;2023-02-22T01:38:43;67.00;;;26.77;;
58472;SDS011;44775;51.564;5.460;2023-02-22T01:41:09;74.18;;;28.80;;
58472;SDS011;44775;51.564;5.460;2023-02-22T01:43:36;67.47;;;26.33;;
58472;SDS011;44775;51.564;5.460;2023-02-22T01:46:05;68.15;;;28.27;;
58472;SDS011;44775;51.564;5.460;2023-02-22T01:48:47;69.85;;;26.67;;
58472;SDS011;44775;51.564;5.460;2023-02-22T01:51:20;74.03;;;27.08;;
58472;SDS011;44775;51.564;5.460;2023-02-22T01:53:53;71.38;;;28.20;;
58472;SDS011;44775;51.564;5.460;2023-02-22T01:56:23;73.40;;;28.25;;
58472;SDS011;44775;51.564;5.460;2023-02-22T01:59:12;70.35;;;27.38;;
58472;SDS011;44775;51.564;5.460;2023-02-22T02:01:37;72.03;;;27.25;;
58472;SDS011;44775;51.564;5.460;2023-02-22T02:04:08;73.90;;;29.02;;
58472;SDS011;44775;51.564;5.460;2023-02-22T02:06:39;76.05;;;29.27;;
58472;SDS011;44775;51.564;5.460;2023-02-22T02:09:11;80.40;;;29.13;;
58472;SDS011;44775;51.564;5.460;2023-02-22T02:11:54;80.20;;;29.47;;
58472;SDS011;44775;51.564;5.460;2023-02-22T02:14:20;81.00;;;29.35;;
58472;SDS011;44775;51.564;5.460;2023-02-22T02:16:49;81.32;;;29.98;;
58472;SDS011;44775;51.564;5.460;2023-02-22T02:19:29;85.88;;;29.52;;
58472;SDS011;44775;51.564;5.460;2023-02-22T02:25:30;185.40;;;30.75;;
58472;SDS011;44775;51.564;5.460;2023-02-22T02:34:30;175.15;;;31.33;;
58472;SDS011;44775;51.564;5.460;2023-02-22T02:42:35;161.93;;;30.80;;
58472;SDS011;44775;51.564;5.460;2023-02-22T02:45:13;128.45;;;30.40;;
58472;SDS011;44775;51.564;5.460;2023-02-22T02:47:44;137.50;;;34.03;;
58472;SDS011;44775;51.564;5.460;2023-02-22T02:50:36;153.20;;;31.65;;
58472;SDS011;44775;51.564;5.460;2023-02-22T02:53:04;370.13;;;39.30;;
58472;SDS011;44775;51.564;5.460;2023-02-22T02:55:31;237.68;;;37.25;;
58472;SDS011;44775;51.564;5.460;2023-02-22T02:58:00;265.73;;;35.03;;
58472;SDS011;44775;51.564;5.460;2023-02-22T03:00:29;183.53;;;34.73;;
58472;SDS011;44775;51.564;5.460;2023-02-22T03:11:15;293.77;;;36.28;;
58472;SDS011;44775;51.564;5.460;2023-02-22T03:22:09;162.95;;;35.30;;
58472;SDS011;44775;51.564;5.460;2023-02-22T03:24:55;207.02;;;35.97;;
58472;SDS011;44775;51.564;5.460;2023-02-22T03:30:33;278.40;;;39.90;;
58472;SDS011;44775;51.564;5.460;2023-02-22T03:32:58;319.33;;;39.47;;
58472;SDS011;44775;51.564;5.460;2023-02-22T03:35:28;327.52;;;40.85;;
58472;SDS011;44775;51.564;5.460;2023-02-22T03:38:00;229.65;;;37.88;;
58472;SDS011;44775;51.564;5.460;2023-02-22T03:40:30;187.55;;;36.08;;
58472;SDS011;44775;51.564;5.460;2023-02-22T03:43:00;221.73;;;34.67;;
58472;SDS011;44775;51.564;5.460;2023-02-22T03:45:31;332.80;;;34.90;;
58472;SDS011;44775;51.564;5.460;2023-02-22T03:48:01;200.15;;;28.35;;
58472;SDS011;44775;51.564;5.460;2023-02-22T03:50:34;222.63;;;33.58;;
58472;SDS011;44775;51.564;5.460;2023-02-22T03:53:02;177.10;;;33.10;;
58472;SDS011;44775;51.564;5.460;2023-02-22T03:55:28;218.55;;;33.20;;
58472;SDS011;44775;51.564;5.460;2023-02-22T03:57:56;177.15;;;28.95;;
58472;SDS011;44775;51.564;5.460;2023-02-22T04:00:24;262.83;;;33.42;;
58472;SDS011;44775;51.564;5.460;2023-02-22T04:02:51;182.05;;;28.25;;
58472;SDS011;44775;51.564;5.460;2023-02-22T04:05:17;129.98;;;28.02;;
58472;SDS011;44775;51.564;5.460;2023-02-22T04:07:43;245.85;;;30.77;;
58472;SDS011;44775;51.564;5.460;2023-02-22T04:10:08;171.48;;;27.85;;
58472;SDS011;44775;51.564;5.460;2023-02-22T04:12:35;163.02;;;27.58;;
58472;SDS011;44775;51.564;5.460;2023-02-22T04:15:01;220.15;;;29.70;;
58472;SDS011;44775;51.564;5.460;2023-02-22T04:17:27;138.23;;;28.23;;
58472;SDS011;44775;51.564;5.460;2023-02-22T04:19:53;148.15;;;26.90;;
58472;SDS011;44775;51.564;5.460;2023-02-22T04:22:18;134.30;;;25.33;;
58472;SDS011;44775;51.564;5.460;2023-02-22T04:24:43;141.60;;;27.20;;
58472;SDS011;44775;51.564;5.460;2023-02-22T04:27:09;131.93;;;25.33;;
58472;SDS011;44775;51.564;5.460;2023-02-22T04:29:35;97.55;;;25.88;;
58472;SDS011;44775;51.564;5.460;2023-02-22T04:32:00;113.55;;;25.38;;
58472;SDS011;44775;51.564;5.460;2023-02-22T04:34:25;167.80;;;26.50;;
58472;SDS011;44775;51.564;5.460;2023-02-22T04:36:50;165.35;;;25.52;;
58472;SDS011;44775;51.564;5.460;2023-02-22T04:39:16;87.70;;;23.60;;
58472;SDS011;44775;51.564;5.460;2023-02-22T04:41:41;112.55;;;25.13;;
58472;SDS011;44775;51.564;5.460;2023-02-22T04:44:07;128.73;;;27.27;;
58472;SDS011;44775;51.564;5.460;2023-02-22T04:46:32;92.45;;;23.13;;
58472;SDS011;44775;51.564;5.460;2023-02-22T04:48:57;85.88;;;21.90;;
58472;SDS011;44775;51.564;5.460;2023-02-22T04:51:23;197.32;;;27.70;;
58472;SDS011;44775;51.564;5.460;2023-02-22T04:53:49;111.95;;;25.83;;
58472;SDS011;44775;51.564;5.460;2023-02-22T04:56:16;124.03;;;25.63;;
58472;SDS011;44775;51.564;5.460;2023-02-22T04:58:42;154.48;;;27.00;;
58472;SDS011;44775;51.564;5.460;2023-02-22T05:01:08;136.20;;;27.02;;
58472;SDS011;44775;51.564;5.460;2023-02-22T05:03:33;146.40;;;29.02;;
58472;SDS011;44775;51.564;5.460;2023-02-22T05:06:01;110.07;;;25.92;;
58472;SDS011;44775;51.564;5.460;2023-02-22T05:08:26;104.45;;;26.13;;
58472;SDS011;44775;51.564;5.460;2023-02-22T05:10:53;96.47;;;24.52;;
58472;SDS011;44775;51.564;5.460;2023-02-22T05:13:18;85.97;;;26.50;;
58472;SDS011;44775;51.564;5.460;2023-02-22T05:15:44;143.73;;;27.90;;
58472;SDS011;44775;51.564;5.460;2023-02-22T05:18:09;84.43;;;25.45;;
58472;SDS011;44775;51.564;5.460;2023-02-22T05:20:34;102.47;;;27.50;;
58472;SDS011;44775;51.564;5.460;2023-02-22T05:23:00;76.85;;;26.50;;
58472;SDS011;44775;51.564;5.460;2023-02-22T05:25:27;72.32;;;26.15;;
58472;SDS011;44775;51.564;5.460;2023-02-22T05:27:53;95.13;;;27.05;;
58472;SDS011;44775;51.564;5.460;2023-02-22T05:30:24;94.72;;;27.27;;
58472;SDS011;44775;51.564;5.460;2023-02-22T05:32:52;87.38;;;27.88;;
58472;SDS011;44775;51.564;5.460;2023-02-22T05:35:18;144.93;;;27.50;;
58472;SDS011;44775;51.564;5.460;2023-02-22T05:37:44;122.57;;;28.83;;
58472;SDS011;44775;51.564;5.460;2023-02-22T05:40:10;92.53;;;27.42;;
58472;SDS011;44775;51.564;5.460;2023-02-22T05:42:35;166.52;;;27.52;;
58472;SDS011;44775;51.564;5.460;2023-02-22T05:45:01;95.47;;;30.40;;
58472;SDS011;44775;51.564;5.460;2023-02-22T05:47:26;117.90;;;27.13;;
58472;SDS011;44775;51.564;5.460;2023-02-22T05:49:51;91.38;;;28.55;;
58472;SDS011;44775;51.564;5.460;2023-02-22T05:52:17;79.88;;;26.85;;
58472;SDS011;44775;51.564;5.460;2023-02-22T05:54:42;90.05;;;27.30;;
58472;SDS011;44775;51.564;5.460;2023-02-22T05:57:07;94.10;;;28.50;;
58472;SDS011;44775;51.564;5.460;2023-02-22T05:59:33;80.97;;;28.60;;
58472;SDS011;44775;51.564;5.460;2023-02-22T06:01:58;106.35;;;28.40;;
58472;SDS011;44775;51.564;5.460;2023-02-22T06:04:23;98.15;;;28.98;;
58472;SDS011;44775;51.564;5.460;2023-02-22T06:06:48;107.25;;;29.63;;
58472;SDS011;44775;51.564;5.460;2023-02-22T06:09:14;119.13;;;30.20;;
58472;SDS011;44775;51.564;5.460;2023-02-22T06:11:39;97.88;;;29.02;;
58472;SDS011;44775;51.564;5.460;2023-02-22T06:14:05;101.00;;;28.40;;
58472;SDS011;44775;51.564;5.460;2023-02-22T06:16:30;96.05;;;30.00;;
58472;SDS011;44775;51.564;5.460;2023-02-22T06:18:56;108.22;;;29.50;;
58472;SDS011;44775;51.564;5.460;2023-02-22T06:21:22;195.85;;;31.63;;
58472;SDS011;44775;51.564;5.460;2023-02-22T06:23:47;102.28;;;27.40;;
58472;SDS011;44775;51.564;5.460;2023-02-22T06:26:15;121.10;;;29.63;;
58472;SDS011;44775;51.564;5.460;2023-02-22T06:28:41;124.88;;;30.67;;
58472;SDS011;44775;51.564;5.460;2023-02-22T06:31:06;85.63;;;26.02;;
58472;SDS011;44775;51.564;5.460;2023-02-22T06:33:32;133.40;;;30.02;;
58472;SDS011;44775;51.564;5.460;2023-02-22T06:35:57;99.80;;;29.42;;
58472;SDS011;44775;51.564;5.460;2023-02-22T06:38:23;101.13;;;29.13;;
58472;SDS011;44775;51.564;5.460;2023-02-22T06:40:49;115.03;;;30.88;;
58472;SDS011;44775;51.564;5.460;2023-02-22T06:43:15;106.32;;;30.25;;
58472;SDS011;44775;51.564;5.460;2023-02-22T06:45:40;105.07;;;30.27;;
58472;SDS011;44775;51.564;5.460;2023-02-22T06:48:06;94.18;;;29.55;;
58472;SDS011;44775;51.564;5.460;2023-02-22T06:50:31;103.05;;;30.42;;
58472;SDS011;44775;51.564;5.460;2023-02-22T06:52:56;193.95;;;34.33;;
58472;SDS011;44775;51.564;5.460;2023-02-22T06:55:23;95.35;;;28.13;;
58472;SDS011;44775;51.564;5.460;2023-02-22T06:57:50;87.63;;;28.83;;
58472;SDS011;44775;51.564;5.460;2023-02-22T07:00:17;90.90;;;29.88;;
58472;SDS011;44775;51.564;5.460;2023-02-22T07:02:43;102.72;;;28.10;;
58472;SDS011;44775;51.564;5.460;2023-02-22T07:05:10;107.15;;;30.98;;
58472;SDS011;44775;51.564;5.460;2023-02-22T07:07:37;75.72;;;24.90;;
58472;SDS011;44775;51.564;5.460;2023-02-22T07:10:03;70.38;;;24.85;;
58472;SDS011;44775;51.564;5.460;2023-02-22T07:12:29;79.70;;;27.25;;
58472;SDS011;44775;51.564;5.460;2023-02-22T07:14:55;80.40;;;26.85;;
58472;SDS011;44775;51.564;5.460;2023-02-22T07:17:20;79.57;;;27.17;;
58472;SDS011;44775;51.564;5.460;2023-02-22T07:19:45;78.22;;;26.80;;
58472;SDS011;44775;51.564;5.460;2023-02-22T07:22:11;79.32;;;27.00;;
58472;SDS011;44775;51.564;5.460;2023-02-22T07:24:36;77.15;;;26.30;;
58472;SDS011;44775;51.564;5.460;2023-02-22T07:27:01;67.45;;;24.55;;
58472;SDS011;44775;51.564;5.460;2023-02-22T07:29:27;56.17;;;19.20;;
58472;SDS011;44775;51.564;5.460;2023-02-22T07:31:52;70.18;;;25.38;;
58472;SDS011;44775;51.564;5.460;2023-02-22T07:34:17;72.75;;;25.83;;
58472;SDS011;44775;51.564;5.460;2023-02-22T07:36:43;78.30;;;27.38;;
58472;SDS011;44775;51.564;5.460;2023-02-22T07:39:08;70.03;;;26.35;;
58472;SDS011;44775;51.564;5.460;2023-02-22T07:41:33;68.30;;;26.23;;
58472;SDS011;44775;51.564;5.460;2023-02-22T07:43:59;70.90;;;25.15;;
58472;SDS011;44775;51.564;5.460;2023-02-22T07:46:24;66.00;;;25.52;;
58472;SDS011;44775;51.564;5.460;2023-02-22T07:48:50;68.38;;;25.73;;
58472;SDS011;44775;51.564;5.460;2023-02-22T07:51:15;61.67;;;24.33;;
58472;SDS011;44775;51.564;5.460;2023-02-22T07:53:41;61.45;;;24.02;;
58472;SDS011;44775;51.564;5.460;2023-02-22T07:56:06;62.88;;;25.52;;
58472;SDS011;44775;51.564;5.460;2023-02-22T07:58:32;60.33;;;23.17;;
58472;SDS011;44775;51.564;5.460;2023-02-22T08:00:59;65.53;;;23.30;;
58472;SDS011;44775;51.564;5.460;2023-02-22T08:05:55;60.55;;;22.75;;
58472;SDS011;44775;51.564;5.460;2023-02-22T08:08:22;57.67;;;24.00;;
58472;SDS011;44775;51.564;5.460;2023-02-22T08:10:48;60.35;;;23.63;;
58472;SDS011;44775;51.564;5.460;2023-02-22T08:13:14;63.45;;;24.55;;
58472;SDS011;44775;51.564;5.460;2023-02-22T08:15:41;60.78;;;24.25;;
58472;SDS011;44775;51.564;5.460;2023-02-22T08:18:09;56.28;;;22.95;;
58472;SDS011;44775;51.564;5.460;2023-02-22T08:20:37;60.03;;;24.35;;
58472;SDS011;44775;51.564;5.460;2023-02-22T08:23:04;54.75;;;23.02;;
58472;SDS011;44775;51.564;5.460;2023-02-22T08:25:30;52.97;;;22.52;;
58472;SDS011;44775;51.564;5.460;2023-02-22T08:27:56;51.13;;;21.75;;
58472;SDS011;44775;51.564;5.460;2023-02-22T08:30:27;53.40;;;23.10;;
58472;SDS011;44775;51.564;5.460;2023-02-22T08:32:54;52.33;;;22.63;;
58472;SDS011;44775;51.564;5.460;2023-02-22T08:35:20;45.25;;;20.52;;
58472;SDS011;44775;51.564;5.460;2023-02-22T08:37:47;48.38;;;21.75;;
58472;SDS011;44775;51.564;5.460;2023-02-22T08:40:15;46.27;;;21.63;;
58472;SDS011;44775;51.564;5.460;2023-02-22T08:42:42;46.28;;;21.38;;
58472;SDS011;44775;51.564;5.460;2023-02-22T08:45:08;44.40;;;21.27;;
58472;SDS011;44775;51.564;5.460;2023-02-22T08:47:34;44.28;;;20.38;;
58472;SDS011;44775;51.564;5.460;2023-02-22T08:49:59;43.72;;;20.73;;
58472;SDS011;44775;51.564;5.460;2023-02-22T08:52:24;43.80;;;21.05;;
58472;SDS011;44775;51.564;5.460;2023-02-22T08:54:49;42.95;;;19.55;;
58472;SDS011;44775;51.564;5.460;2023-02-22T08:57:15;42.92;;;20.98;;
58472;SDS011;44775;51.564;5.460;2023-02-22T08:59:40;39.80;;;19.75;;
58472;SDS011;44775;51.564;5.460;2023-02-22T09:02:12;39.70;;;20.23;;
58472;SDS011;44775;51.564;5.460;2023-02-22T09:04:39;39.78;;;19.40;;
58472;SDS011;44775;51.564;5.460;2023-02-22T09:07:05;37.00;;;19.45;;
58472;SDS011;44775;51.564;5.460;2023-02-22T09:09:30;38.65;;;19.20;;
58472;SDS011;44775;51.564;5.460;2023-02-22T09:11:55;34.83;;;18.08;;
58472;SDS011;44775;51.564;5.460;2023-02-22T09:14:20;36.20;;;18.77;;
58472;SDS011;44775;51.564;5.460;2023-02-22T09:16:46;37.70;;;17.83;;
58472;SDS011;44775;51.564;5.460;2023-02-22T09:19:11;39.28;;;19.17;;
58472;SDS011;44775;51.564;5.460;2023-02-22T09:21:36;38.42;;;19.02;;
58472;SDS011;44775;51.564;5.460;2023-02-22T09:24:03;39.95;;;19.60;;
58472;SDS011;44775;51.564;5.460;2023-02-22T09:28:58;37.75;;;19.58;;
58472;SDS011;44775;51.564;5.460;2023-02-22T09:31:23;37.38;;;18.80;;
58472;SDS011;44775;51.564;5.460;2023-02-22T09:33:48;35.15;;;18.33;;
58472;SDS011;44775;51.564;5.460;2023-02-22T09:36:14;33.42;;;18.65;;
58472;SDS011;44775;51.564;5.460;2023-02-22T09:38:39;36.22;;;19.50;;
58472;SDS011;44775;51.564;5.460;2023-02-22T09:41:09;34.55;;;18.55;;
58472;SDS011;44775;51.564;5.460;2023-02-22T09:46:19;38.13;;;20.25;;
58472;SDS011;44775;51.564;5.460;2023-02-22T09:51:41;36.88;;;19.88;;
58472;SDS011;44775;51.564;5.460;2023-02-22T09:54:11;39.38;;;20.67;;
58472;SDS011;44775;51.564;5.460;2023-02-22T09:56:42;36.85;;;21.02;;
58472;SDS011;44775;51.564;5.460;2023-02-22T09:59:10;39.40;;;21.27;;
58472;SDS011;44775;51.564;5.460;2023-02-22T10:01:44;37.58;;;21.08;;
58472;SDS011;44775;51.564;5.460;2023-02-22T10:09:31;35.97;;;20.67;;
58472;SDS011;44775;51.564;5.460;2023-02-22T10:12:06;34.33;;;20.30;;
58472;SDS011;44775;51.564;5.460;2023-02-22T10:14:46;33.90;;;19.52;;
58472;SDS011;44775;51.564;5.460;2023-02-22T10:17:23;35.67;;;20.27;;
58472;SDS011;44775;51.564;5.460;2023-02-22T10:20:02;33.38;;;20.25;;
58472;SDS011;44775;51.564;5.460;2023-02-22T10:25:25;30.85;;;19.13;;
58472;SDS011;44775;51.564;5.460;2023-02-22T10:30:43;32.33;;;18.52;;
58472;SDS011;44775;51.564;5.460;2023-02-22T10:34:01;28.88;;;17.92;;
58472;SDS011;44775;51.564;5.460;2023-02-22T10:36:15;31.02;;;18.98;;
58472;SDS011;44775;51.564;5.460;2023-02-22T10:38:47;29.10;;;17.50;;
58472;SDS011;44775;51.564;5.460;2023-02-22T10:41:40;25.60;;;16.58;;
58472;SDS011;44775;51.564;5.460;2023-02-22T10:44:12;29.08;;;18.58;;
58472;SDS011;44775;51.564;5.460;2023-02-22T10:46:37;28.42;;;17.90;;
58472;SDS011;44775;51.564;5.460;2023-02-22T10:49:05;26.88;;;17.02;;
58472;SDS011;44775;51.564;5.460;2023-02-22T10:51:32;24.88;;;16.75;;
58472;SDS011;44775;51.564;5.460;2023-02-22T10:54:01;25.50;;;16.13;;
58472;SDS011;44775;51.564;5.460;2023-02-22T10:56:51;23.35;;;14.68;;
58472;SDS011;44775;51.564;5.460;2023-02-22T10:59:36;21.55;;;14.32;;
58472;SDS011;44775;51.564;5.460;2023-02-22T11:02:14;22.35;;;13.48;;
58472;SDS011;44775;51.564;5.460;2023-02-22T11:04:53;20.77;;;13.95;;
58472;SDS011;44775;51.564;5.460;2023-02-22T11:07:28;19.35;;;12.98;;
58472;SDS011;44775;51.564;5.460;2023-02-22T11:10:06;19.30;;;13.63;;
58472;SDS011;44775;51.564;5.460;2023-02-22T11:12:37;21.90;;;13.50;;
58472;SDS011;44775;51.564;5.460;2023-02-22T11:17:46;19.25;;;13.10;;
58472;SDS011;44775;51.564;5.460;2023-02-22T11:22:59;19.40;;;12.60;;
58472;SDS011;44775;51.564;5.460;2023-02-22T11:25:28;18.95;;;12.85;;
58472;SDS011;44775;51.564;5.460;2023-02-22T11:28:20;20.52;;;13.70;;
58472;SDS011;44775;51.564;5.460;2023-02-22T11:30:55;20.05;;;12.25;;
58472;SDS011;44775;51.564;5.460;2023-02-22T11:33:23;18.40;;;12.70;;
58472;SDS011;44775;51.564;5.460;2023-02-22T11:36:00;18.65;;;12.57;;
58472;SDS011;44775;51.564;5.460;2023-02-22T11:38:29;18.85;;;12.20;;
58472;SDS011;44775;51.564;5.460;2023-02-22T11:44:10;19.38;;;13.10;;
58472;SDS011;44775;51.564;5.460;2023-02-22T11:46:39;17.85;;;12.43;;
58472;SDS011;44775;51.564;5.460;2023-02-22T11:49:10;19.53;;;12.77;;
58472;SDS011;44775;51.564;5.460;2023-02-22T12:02:56;19.13;;;12.90;;
58472;SDS011;44775;51.564;5.460;2023-02-22T12:08:19;18.88;;;14.18;;
58472;SDS011;44775;51.564;5.460;2023-02-22T12:11:00;20.98;;;13.30;;
58472;SDS011;44775;51.564;5.460;2023-02-22T12:16:30;20.08;;;13.68;;
58472;SDS011;44775;51.564;5.460;2023-02-22T12:19:31;23.30;;;14.15;;
58472;SDS011;44775;51.564;5.460;2023-02-22T12:22:03;21.38;;;14.23;;
58472;SDS011;44775;51.564;5.460;2023-02-22T12:24:38;20.08;;;13.75;;
58472;SDS011;44775;51.564;5.460;2023-02-22T12:27:10;21.35;;;14.13;;
58472;SDS011;44775;51.564;5.460;2023-02-22T12:29:43;22.83;;;14.82;;
58472;SDS011;44775;51.564;5.460;2023-02-22T12:32:18;23.13;;;14.23;;
58472;SDS011;44775;51.564;5.460;2023-02-22T12:35:00;21.73;;;14.25;;
58472;SDS011;44775;51.564;5.460;2023-02-22T12:37:36;19.67;;;14.88;;
58472;SDS011;44775;51.564;5.460;2023-02-22T12:40:31;20.15;;;14.15;;
58472;SDS011;44775;51.564;5.460;2023-02-22T12:43:11;20.50;;;14.98;;
58472;SDS011;44775;51.564;5.460;2023-02-22T12:46:05;23.33;;;14.73;;
58472;SDS011;44775;51.564;5.460;2023-02-22T12:48:51;20.23;;;14.55;;
58472;SDS011;44775;51.564;5.460;2023-02-22T12:54:09;22.73;;;15.68;;
58472;SDS011;44775;51.564;5.460;2023-02-22T12:56:48;23.50;;;16.38;;
58472;SDS011;44775;51.564;5.460;2023-02-22T12:59:55;23.80;;;15.60;;
58472;SDS011;44775;51.564;5.460;2023-02-22T13:02:27;23.40;;;16.25;;
58472;SDS011;44775;51.564;5.460;2023-02-22T13:04:56;22.75;;;15.65;;
58472;SDS011;44775;51.564;5.460;2023-02-22T13:10:22;27.55;;;18.00;;
58472;SDS011;44775;51.564;5.460;2023-02-22T13:15:49;26.98;;;18.25;;
58472;SDS011;44775;51.564;5.460;2023-02-22T13:18:27;24.60;;;17.42;;
58472;SDS011;44775;51.564;5.460;2023-02-22T13:21:04;25.67;;;18.50;;
58472;SDS011;44775;51.564;5.460;2023-02-22T13:23:48;24.13;;;17.67;;
58472;SDS011;44775;51.564;5.460;2023-02-22T13:29:11;28.00;;;18.83;;
58472;SDS011;44775;51.564;5.460;2023-02-22T13:34:37;27.73;;;18.35;;
58472;SDS011;44775;51.564;5.460;2023-02-22T13:45:25;27.65;;;18.52;;
58472;SDS011;44775;51.564;5.460;2023-02-22T13:48:10;27.77;;;19.45;;
58472;SDS011;44775;51.564;5.460;2023-02-22T13:50:56;28.52;;;18.92;;
58472;SDS011;44775;51.564;5.460;2023-02-22T13:53:38;27.60;;;18.58;;
58472;SDS011;44775;51.564;5.460;2023-02-22T13:56:11;25.75;;;18.45;;
58472;SDS011;44775;51.564;5.460;2023-02-22T13:58:51;25.73;;;18.15;;
58472;SDS011;44775;51.564;5.460;2023-02-22T14:06:51;27.10;;;18.17;;
58472;SDS011;44775;51.564;5.460;2023-02-22T14:12:04;26.83;;;19.48;;
58472;SDS011;44775;51.564;5.460;2023-02-22T14:14:29;28.52;;;19.83;;
58472;SDS011;44775;51.564;5.460;2023-02-22T14:17:14;28.05;;;20.63;;
58472;SDS011;44775;51.564;5.460;2023-02-22T14:20:04;29.33;;;19.17;;
58472;SDS011;44775;51.564;5.460;2023-02-22T14:22:38;30.13;;;20.50;;
58472;SDS011;44775;51.564;5.460;2023-02-22T14:25:04;29.30;;;19.70;;
58472;SDS011;44775;51.564;5.460;2023-02-22T14:27:39;28.92;;;20.08;;
58472;SDS011;44775;51.564;5.460;2023-02-22T14:30:20;28.98;;;20.27;;
58472;SDS011;44775;51.564;5.460;2023-02-22T14:32:49;29.67;;;20.70;;
58472;SDS011;44775;51.564;5.460;2023-02-22T14:35:16;28.30;;;20.55;;
58472;SDS011;44775;51.564;5.460;2023-02-22T14:37:47;27.63;;;19.83;;
58472;SDS011;44775;51.564;5.460;2023-02-22T14:43:03;32.75;;;20.92;;
58472;SDS011;44775;51.564;5.460;2023-02-22T14:45:35;28.42;;;20.85;;
58472;SDS011;44775;51.564;5.460;2023-02-22T14:48:17;27.42;;;20.40;;
58472;SDS011;44775;51.564;5.460;2023-02-22T14:50:52;29.30;;;20.38;;
58472;SDS011;44775;51.564;5.460;2023-02-22T14:53:26;30.80;;;21.90;;
58472;SDS011;44775;51.564;5.460;2023-02-22T15:01:33;27.65;;;20.05;;
58472;SDS011;44775;51.564;5.460;2023-02-22T15:04:17;29.38;;;20.55;;
58472;SDS011;44775;51.564;5.460;2023-02-22T15:06:46;30.60;;;20.23;;
58472;SDS011;44775;51.564;5.460;2023-02-22T15:09:13;26.98;;;20.88;;
58472;SDS011;44775;51.564;5.460;2023-02-22T15:11:47;31.58;;;20.90;;
58472;SDS011;44775;51.564;5.460;2023-02-22T15:14:37;27.88;;;20.75;;
58472;SDS011;44775;51.564;5.460;2023-02-22T15:17:06;28.63;;;20.85;;
58472;SDS011;44775;51.564;5.460;2023-02-22T15:19:37;34.63;;;22.13;;
58472;SDS011;44775;51.564;5.460;2023-02-22T15:22:05;33.15;;;22.40;;
58472;SDS011;44775;51.564;5.460;2023-02-22T15:24:59;32.28;;;22.08;;
58472;SDS011;44775;51.564;5.460;2023-02-22T15:27:27;32.00;;;23.00;;
58472;SDS011;44775;51.564;5.460;2023-02-22T15:29:59;33.70;;;23.25;;
58472;SDS011;44775;51.564;5.460;2023-02-22T15:32:32;35.58;;;23.77;;
58472;SDS011;44775;51.564;5.460;2023-02-22T15:37:59;35.72;;;26.00;;
58472;SDS011;44775;51.564;5.460;2023-02-22T15:40:45;37.33;;;24.53;;
58472;SDS011;44775;51.564;5.460;2023-02-22T15:43:18;35.70;;;25.85;;
58472;SDS011;44775;51.564;5.460;2023-02-22T15:45:52;37.70;;;25.90;;
58472;SDS011;44775;51.564;5.460;2023-02-22T15:48:18;37.10;;;26.50;;
58472;SDS011;44775;51.564;5.460;2023-02-22T15:50:57;39.58;;;26.60;;
58472;SDS011;44775;51.564;5.460;2023-02-22T15:53:23;41.72;;;26.83;;
58472;SDS011;44775;51.564;5.460;2023-02-22T15:55:55;37.05;;;26.73;;
58472;SDS011;44775;51.564;5.460;2023-02-22T15:58:24;38.05;;;26.98;;
58472;SDS011;44775;51.564;5.460;2023-02-22T16:01:00;39.03;;;26.63;;
58472;SDS011;44775;51.564;5.460;2023-02-22T16:03:33;40.72;;;27.35;;
58472;SDS011;44775;51.564;5.460;2023-02-22T16:06:07;38.60;;;26.05;;
58472;SDS011;44775;51.564;5.460;2023-02-22T16:08:35;43.55;;;26.98;;
58472;SDS011;44775;51.564;5.460;2023-02-22T16:11:07;44.65;;;29.15;;
58472;SDS011;44775;51.564;5.460;2023-02-22T16:13:37;43.20;;;28.98;;
58472;SDS011;44775;51.564;5.460;2023-02-22T16:18:51;41.13;;;29.45;;
58472;SDS011;44775;51.564;5.460;2023-02-22T16:21:20;43.97;;;30.42;;
58472;SDS011;44775;51.564;5.460;2023-02-22T16:23:51;40.45;;;30.00;;
58472;SDS011;44775;51.564;5.460;2023-02-22T16:26:20;43.63;;;30.35;;
58472;SDS011;44775;51.564;5.460;2023-02-22T16:28:52;42.78;;;30.58;;
58472;SDS011;44775;51.564;5.460;2023-02-22T16:31:23;47.10;;;31.58;;
58472;SDS011;44775;51.564;5.460;2023-02-22T16:33:51;48.95;;;32.75;;
58472;SDS011;44775;51.564;5.460;2023-02-22T16:36:18;44.40;;;31.55;;
58472;SDS011;44775;51.564;5.460;2023-02-22T16:38:44;44.72;;;31.80;;
58472;SDS011;44775;51.564;5.460;2023-02-22T16:41:12;47.83;;;32.35;;
58472;SDS011;44775;51.564;5.460;2023-02-22T16:43:43;49.05;;;33.10;;